sensor_id;sensor_type;location;lat;lon;timestamp;temperature;humidity
74171;DHT22;62526;50.948;6.590;2023-04-03T00:01:17;4.20;99.90
74171;DHT22;62526;50.948;6.590;2023-04-03T00:03:44;4.20;99.90
74171;DHT22;62526;50.948;6.590;2023-04-03T00:06:10;4.20;99.90
74171;DHT22;62526;50.948;6.590;2023-04-03T00:08:37;4.30;99.90
74171;DHT22;62526;50.948;6.590;2023-04-03T00:11:04;4.30;99.90
74171;DHT22;62526;50.948;6.590;2023-04-03T00:13:32;4.20;99.90
74171;DHT22;62526;50.948;6.590;2023-04-03T00:15:57;4.20;99.90
74171;DHT22;62526;50.948;6.590;2023-04-03T00:18:23;4.20;99.90
74171;DHT22;62526;50.948;6.590;2023-04-03T00:20:50;4.10;99.90
74171;DHT22;62526;50.948;6.590;2023-04-03T00:23:17;4.00;99.90
74171;DHT22;62526;50.948;6.590;2023-04-03T00:25:43;3.90;99.90
74171;DHT22;62526;50.948;6.590;2023-04-03T00:28:10;3.90;99.90
74171;DHT22;62526;50.948;6.590;2023-04-03T00:30:36;3.80;99.90
74171;DHT22;62526;50.948;6.590;2023-04-03T00:33:03;3.80;99.90
74171;DHT22;62526;50.948;6.590;2023-04-03T00:35:30;3.70;99.90
74171;DHT22;62526;50.948;6.590;2023-04-03T00:37:56;3.70;99.90
74171;DHT22;62526;50.948;6.590;2023-04-03T00:40:24;3.70;99.90
74171;DHT22;62526;50.948;6.590;2023-04-03T00:42:51;3.60;99.90
74171;DHT22;62526;50.948;6.590;2023-04-03T00:45:33;3.50;99.90
74171;DHT22;62526;50.948;6.590;2023-04-03T00:47:58;3.50;99.90
74171;DHT22;62526;50.948;6.590;2023-04-03T00:50:26;3.50;99.90
74171;DHT22;62526;50.948;6.590;2023-04-03T00:52:52;3.40;99.90
74171;DHT22;62526;50.948;6.590;2023-04-03T00:55:18;3.40;99.90
74171;DHT22;62526;50.948;6.590;2023-04-03T00:57:45;3.40;99.90
74171;DHT22;62526;50.948;6.590;2023-04-03T01:00:13;3.40;99.90
74171;DHT22;62526;50.948;6.590;2023-04-03T01:02:39;3.30;99.90
74171;DHT22;62526;50.948;6.590;2023-04-03T01:05:08;3.30;99.90
74171;DHT22;62526;50.948;6.590;2023-04-03T01:07:35;3.30;99.90
74171;DHT22;62526;50.948;6.590;2023-04-03T01:10:02;3.20;99.90
74171;DHT22;62526;50.948;6.590;2023-04-03T01:12:31;3.20;99.90
74171;DHT22;62526;50.948;6.590;2023-04-03T01:14:57;3.20;99.90
74171;DHT22;62526;50.948;6.590;2023-04-03T01:17:30;3.10;99.90
74171;DHT22;62526;50.948;6.590;2023-04-03T01:20:01;3.10;99.90
74171;DHT22;62526;50.948;6.590;2023-04-03T01:22:26;3.10;99.90
74171;DHT22;62526;50.948;6.590;2023-04-03T01:24:50;3.10;99.90
74171;DHT22;62526;50.948;6.590;2023-04-03T01:27:17;3.00;99.90
74171;DHT22;62526;50.948;6.590;2023-04-03T01:29:43;3.00;99.90
74171;DHT22;62526;50.948;6.590;2023-04-03T01:32:10;3.00;99.90
74171;DHT22;62526;50.948;6.590;2023-04-03T01:34:37;2.90;99.90
74171;DHT22;62526;50.948;6.590;2023-04-03T01:37:03;2.90;99.90
74171;DHT22;62526;50.948;6.590;2023-04-03T01:39:30;2.90;99.90
74171;DHT22;62526;50.948;6.590;2023-04-03T01:41:56;2.90;99.90
74171;DHT22;62526;50.948;6.590;2023-04-03T01:44:23;2.90;99.90
74171;DHT22;62526;50.948;6.590;2023-04-03T01:46:50;2.90;99.90
74171;DHT22;62526;50.948;6.590;2023-04-03T01:49:16;2.80;99.90
74171;DHT22;62526;50.948;6.590;2023-04-03T01:51:43;2.80;99.90
74171;DHT22;62526;50.948;6.590;2023-04-03T01:54:09;2.80;99.90
74171;DHT22;62526;50.948;6.590;2023-04-03T01:56:36;2.70;99.90
74171;DHT22;62526;50.948;6.590;2023-04-03T01:59:03;2.70;99.90
74171;DHT22;62526;50.948;6.590;2023-04-03T02:01:29;2.70;99.90
74171;DHT22;62526;50.948;6.590;2023-04-03T02:03:56;2.70;99.90
74171;DHT22;62526;50.948;6.590;2023-04-03T02:06:22;2.70;99.90
74171;DHT22;62526;50.948;6.590;2023-04-03T02:08:49;2.60;99.90
74171;DHT22;62526;50.948;6.590;2023-04-03T02:11:16;2.60;99.90
74171;DHT22;62526;50.948;6.590;2023-04-03T02:13:42;2.60;99.90
74171;DHT22;62526;50.948;6.590;2023-04-03T02:16:09;2.60;99.90
74171;DHT22;62526;50.948;6.590;2023-04-03T02:18:36;2.60;99.90
74171;DHT22;62526;50.948;6.590;2023-04-03T02:21:02;2.60;99.90
74171;DHT22;62526;50.948;6.590;2023-04-03T02:23:29;2.60;99.90
74171;DHT22;62526;50.948;6.590;2023-04-03T02:26:04;2.60;99.90
74171;DHT22;62526;50.948;6.590;2023-04-03T02:28:30;2.60;99.90
74171;DHT22;62526;50.948;6.590;2023-04-03T02:30:57;2.60;99.90
74171;DHT22;62526;50.948;6.590;2023-04-03T02:33:23;2.60;99.90
74171;DHT22;62526;50.948;6.590;2023-04-03T02:35:53;2.60;99.90
74171;DHT22;62526;50.948;6.590;2023-04-03T02:38:19;2.60;99.90
74171;DHT22;62526;50.948;6.590;2023-04-03T02:40:46;2.60;99.90
74171;DHT22;62526;50.948;6.590;2023-04-03T02:43:12;2.60;99.90
74171;DHT22;62526;50.948;6.590;2023-04-03T02:45:39;2.50;99.90
74171;DHT22;62526;50.948;6.590;2023-04-03T02:48:06;2.50;99.90
74171;DHT22;62526;50.948;6.590;2023-04-03T02:50:32;2.50;99.90
74171;DHT22;62526;50.948;6.590;2023-04-03T02:52:59;2.50;99.90
74171;DHT22;62526;50.948;6.590;2023-04-03T02:55:25;2.50;99.90
74171;DHT22;62526;50.948;6.590;2023-04-03T02:57:52;2.50;99.90
74171;DHT22;62526;50.948;6.590;2023-04-03T03:00:19;2.50;99.90
74171;DHT22;62526;50.948;6.590;2023-04-03T03:02:46;2.50;99.90
74171;DHT22;62526;50.948;6.590;2023-04-03T03:05:12;2.40;99.90
74171;DHT22;62526;50.948;6.590;2023-04-03T03:07:39;2.40;99.90
74171;DHT22;62526;50.948;6.590;2023-04-03T03:10:06;2.40;99.90
74171;DHT22;62526;50.948;6.590;2023-04-03T03:12:32;2.40;99.90
74171;DHT22;62526;50.948;6.590;2023-04-03T03:14:59;2.40;99.90
74171;DHT22;62526;50.948;6.590;2023-04-03T03:17:26;2.40;99.90
74171;DHT22;62526;50.948;6.590;2023-04-03T03:19:52;2.40;99.90
74171;DHT22;62526;50.948;6.590;2023-04-03T03:22:19;2.40;99.90
74171;DHT22;62526;50.948;6.590;2023-04-03T03:24:46;2.30;99.90
74171;DHT22;62526;50.948;6.590;2023-04-03T03:27:12;2.30;99.90
74171;DHT22;62526;50.948;6.590;2023-04-03T03:29:39;2.30;99.90
74171;DHT22;62526;50.948;6.590;2023-04-03T03:32:05;2.30;99.90
74171;DHT22;62526;50.948;6.590;2023-04-03T03:34:32;2.30;99.90
74171;DHT22;62526;50.948;6.590;2023-04-03T03:36:59;2.30;99.90
74171;DHT22;62526;50.948;6.590;2023-04-03T03:39:25;2.30;99.90
74171;DHT22;62526;50.948;6.590;2023-04-03T03:41:52;2.30;99.90
74171;DHT22;62526;50.948;6.590;2023-04-03T03:44:19;2.30;99.90
74171;DHT22;62526;50.948;6.590;2023-04-03T03:46:45;2.30;99.90
74171;DHT22;62526;50.948;6.590;2023-04-03T03:49:12;2.30;99.90
74171;DHT22;62526;50.948;6.590;2023-04-03T03:51:39;2.30;99.90
74171;DHT22;62526;50.948;6.590;2023-04-03T03:54:05;2.30;99.90
74171;DHT22;62526;50.948;6.590;2023-04-03T03:56:32;2.30;99.90
74171;DHT22;62526;50.948;6.590;2023-04-03T03:58:58;2.30;99.90
74171;DHT22;62526;50.948;6.590;2023-04-03T04:01:25;2.40;99.90
74171;DHT22;62526;50.948;6.590;2023-04-03T04:03:51;2.40;99.90
74171;DHT22;62526;50.948;6.590;2023-04-03T04:06:18;2.40;99.90
74171;DHT22;62526;50.948;6.590;2023-04-03T04:08:45;2.40;99.90
74171;DHT22;62526;50.948;6.590;2023-04-03T04:11:11;2.40;99.90
74171;DHT22;62526;50.948;6.590;2023-04-03T04:13:38;2.50;99.90
74171;DHT22;62526;50.948;6.590;2023-04-03T04:16:05;2.50;99.90
74171;DHT22;62526;50.948;6.590;2023-04-03T04:18:32;2.50;99.90
74171;DHT22;62526;50.948;6.590;2023-04-03T04:20:58;2.50;99.90
74171;DHT22;62526;50.948;6.590;2023-04-03T04:23:25;2.50;99.90
74171;DHT22;62526;50.948;6.590;2023-04-03T04:25:51;2.50;99.90
74171;DHT22;62526;50.948;6.590;2023-04-03T04:28:18;2.50;99.90
74171;DHT22;62526;50.948;6.590;2023-04-03T04:30:44;2.50;99.90
74171;DHT22;62526;50.948;6.590;2023-04-03T04:33:11;2.50;99.90
74171;DHT22;62526;50.948;6.590;2023-04-03T04:35:46;2.50;99.90
74171;DHT22;62526;50.948;6.590;2023-04-03T04:38:11;2.50;99.90
74171;DHT22;62526;50.948;6.590;2023-04-03T04:40:37;2.50;99.90
74171;DHT22;62526;50.948;6.590;2023-04-03T04:43:04;2.50;99.90
74171;DHT22;62526;50.948;6.590;2023-04-03T04:45:30;2.50;99.90
74171;DHT22;62526;50.948;6.590;2023-04-03T04:47:57;2.50;99.90
74171;DHT22;62526;50.948;6.590;2023-04-03T04:50:24;2.50;99.90
74171;DHT22;62526;50.948;6.590;2023-04-03T04:52:50;2.50;99.90
74171;DHT22;62526;50.948;6.590;2023-04-03T04:55:17;2.40;99.90
74171;DHT22;62526;50.948;6.590;2023-04-03T04:57:43;2.40;99.90
74171;DHT22;62526;50.948;6.590;2023-04-03T05:00:11;2.40;99.90
74171;DHT22;62526;50.948;6.590;2023-04-03T05:02:37;2.40;99.90
74171;DHT22;62526;50.948;6.590;2023-04-03T05:05:04;2.40;99.90
74171;DHT22;62526;50.948;6.590;2023-04-03T05:07:31;2.40;99.90
74171;DHT22;62526;50.948;6.590;2023-04-03T05:09:57;2.40;99.90
74171;DHT22;62526;50.948;6.590;2023-04-03T05:12:24;2.40;99.90
74171;DHT22;62526;50.948;6.590;2023-04-03T05:14:51;2.40;99.90
74171;DHT22;62526;50.948;6.590;2023-04-03T05:17:17;2.40;99.90
74171;DHT22;62526;50.948;6.590;2023-04-03T05:19:44;2.40;99.90
74171;DHT22;62526;50.948;6.590;2023-04-03T05:22:10;2.40;99.90
74171;DHT22;62526;50.948;6.590;2023-04-03T05:24:37;2.40;99.90
74171;DHT22;62526;50.948;6.590;2023-04-03T05:27:04;2.40;99.90
74171;DHT22;62526;50.948;6.590;2023-04-03T05:29:30;2.40;99.90
74171;DHT22;62526;50.948;6.590;2023-04-03T05:31:57;2.50;99.90
74171;DHT22;62526;50.948;6.590;2023-04-03T05:34:23;2.50;99.90
74171;DHT22;62526;50.948;6.590;2023-04-03T05:36:50;2.50;99.90
74171;DHT22;62526;50.948;6.590;2023-04-03T05:39:17;2.50;99.90
74171;DHT22;62526;50.948;6.590;2023-04-03T05:41:43;2.50;99.90
74171;DHT22;62526;50.948;6.590;2023-04-03T05:44:10;2.60;99.90
74171;DHT22;62526;50.948;6.590;2023-04-03T05:46:36;2.60;99.90
74171;DHT22;62526;50.948;6.590;2023-04-03T05:49:03;2.70;99.90
74171;DHT22;62526;50.948;6.590;2023-04-03T05:51:31;2.70;99.90
74171;DHT22;62526;50.948;6.590;2023-04-03T05:54:00;2.70;99.90
74171;DHT22;62526;50.948;6.590;2023-04-03T05:56:26;2.70;99.90
74171;DHT22;62526;50.948;6.590;2023-04-03T05:58:52;2.70;99.90
74171;DHT22;62526;50.948;6.590;2023-04-03T06:01:19;2.80;99.90
74171;DHT22;62526;50.948;6.590;2023-04-03T06:03:45;2.80;99.90
74171;DHT22;62526;50.948;6.590;2023-04-03T06:06:13;2.80;99.90
74171;DHT22;62526;50.948;6.590;2023-04-03T06:08:40;2.90;99.90
74171;DHT22;62526;50.948;6.590;2023-04-03T06:11:06;2.90;99.90
74171;DHT22;62526;50.948;6.590;2023-04-03T06:13:33;2.90;99.90
74171;DHT22;62526;50.948;6.590;2023-04-03T06:16:11;3.00;99.90
74171;DHT22;62526;50.948;6.590;2023-04-03T06:18:45;3.00;99.90
74171;DHT22;62526;50.948;6.590;2023-04-03T06:21:13;3.10;99.90
74171;DHT22;62526;50.948;6.590;2023-04-03T06:23:42;3.10;99.90
74171;DHT22;62526;50.948;6.590;2023-04-03T06:26:08;3.20;99.90
74171;DHT22;62526;50.948;6.590;2023-04-03T06:28:35;3.20;99.90
74171;DHT22;62526;50.948;6.590;2023-04-03T06:31:01;3.30;99.90
74171;DHT22;62526;50.948;6.590;2023-04-03T06:33:28;3.30;99.90
74171;DHT22;62526;50.948;6.590;2023-04-03T06:35:57;3.40;99.90
74171;DHT22;62526;50.948;6.590;2023-04-03T06:38:22;3.40;99.90
74171;DHT22;62526;50.948;6.590;2023-04-03T06:40:49;3.50;99.90
74171;DHT22;62526;50.948;6.590;2023-04-03T06:43:15;3.60;99.90
74171;DHT22;62526;50.948;6.590;2023-04-03T06:45:42;3.60;99.90
74171;DHT22;62526;50.948;6.590;2023-04-03T06:48:08;3.70;99.90
74171;DHT22;62526;50.948;6.590;2023-04-03T06:50:35;3.80;99.90
74171;DHT22;62526;50.948;6.590;2023-04-03T06:53:02;3.80;99.90
74171;DHT22;62526;50.948;6.590;2023-04-03T06:55:28;3.90;99.90
74171;DHT22;62526;50.948;6.590;2023-04-03T06:57:55;3.90;99.90
74171;DHT22;62526;50.948;6.590;2023-04-03T07:00:22;4.00;99.90
74171;DHT22;62526;50.948;6.590;2023-04-03T07:02:48;4.10;99.90
74171;DHT22;62526;50.948;6.590;2023-04-03T07:05:15;4.10;99.90
74171;DHT22;62526;50.948;6.590;2023-04-03T07:07:41;4.20;99.90
74171;DHT22;62526;50.948;6.590;2023-04-03T07:10:08;4.20;99.90
74171;DHT22;62526;50.948;6.590;2023-04-03T07:12:35;4.30;99.90
74171;DHT22;62526;50.948;6.590;2023-04-03T07:15:01;4.40;99.90
74171;DHT22;62526;50.948;6.590;2023-04-03T07:17:28;4.40;99.90
74171;DHT22;62526;50.948;6.590;2023-04-03T07:19:55;4.50;99.90
74171;DHT22;62526;50.948;6.590;2023-04-03T07:22:21;4.50;99.90
74171;DHT22;62526;50.948;6.590;2023-04-03T07:24:48;4.60;99.90
74171;DHT22;62526;50.948;6.590;2023-04-03T07:27:14;4.70;99.90
74171;DHT22;62526;50.948;6.590;2023-04-03T07:29:41;4.70;99.90
74171;DHT22;62526;50.948;6.590;2023-04-03T07:32:08;4.80;99.90
74171;DHT22;62526;50.948;6.590;2023-04-03T07:34:34;4.90;99.90
74171;DHT22;62526;50.948;6.590;2023-04-03T07:37:01;4.90;99.90
74171;DHT22;62526;50.948;6.590;2023-04-03T07:39:28;4.90;99.90
74171;DHT22;62526;50.948;6.590;2023-04-03T07:41:54;5.00;99.90
74171;DHT22;62526;50.948;6.590;2023-04-03T07:44:21;5.00;99.90
74171;DHT22;62526;50.948;6.590;2023-04-03T07:46:48;5.10;99.90
74171;DHT22;62526;50.948;6.590;2023-04-03T07:49:14;5.10;99.90
74171;DHT22;62526;50.948;6.590;2023-04-03T07:51:41;5.20;99.90
74171;DHT22;62526;50.948;6.590;2023-04-03T07:54:08;5.30;99.90
74171;DHT22;62526;50.948;6.590;2023-04-03T07:56:34;5.30;99.90
74171;DHT22;62526;50.948;6.590;2023-04-03T07:59:01;5.30;99.90
74171;DHT22;62526;50.948;6.590;2023-04-03T08:01:27;5.30;99.90
74171;DHT22;62526;50.948;6.590;2023-04-03T08:03:54;5.40;99.90
74171;DHT22;62526;50.948;6.590;2023-04-03T08:06:21;5.40;99.90
74171;DHT22;62526;50.948;6.590;2023-04-03T08:08:47;5.50;99.90
74171;DHT22;62526;50.948;6.590;2023-04-03T08:11:14;5.60;99.90
74171;DHT22;62526;50.948;6.590;2023-04-03T08:13:40;5.70;99.90
74171;DHT22;62526;50.948;6.590;2023-04-03T08:16:09;5.80;99.90
74171;DHT22;62526;50.948;6.590;2023-04-03T08:18:35;5.80;99.90
74171;DHT22;62526;50.948;6.590;2023-04-03T08:21:04;5.90;99.90
74171;DHT22;62526;50.948;6.590;2023-04-03T08:23:28;5.90;99.90
74171;DHT22;62526;50.948;6.590;2023-04-03T08:25:54;5.90;99.90
74171;DHT22;62526;50.948;6.590;2023-04-03T08:28:21;6.00;99.90
74171;DHT22;62526;50.948;6.590;2023-04-03T08:30:48;6.00;99.90
74171;DHT22;62526;50.948;6.590;2023-04-03T08:33:21;6.10;99.90
74171;DHT22;62526;50.948;6.590;2023-04-03T08:35:48;6.10;99.90
74171;DHT22;62526;50.948;6.590;2023-04-03T08:38:15;6.20;99.90
74171;DHT22;62526;50.948;6.590;2023-04-03T08:40:41;6.30;99.90
74171;DHT22;62526;50.948;6.590;2023-04-03T08:43:21;6.40;99.90
74171;DHT22;62526;50.948;6.590;2023-04-03T08:45:45;6.50;99.90
74171;DHT22;62526;50.948;6.590;2023-04-03T08:48:14;6.50;99.90
74171;DHT22;62526;50.948;6.590;2023-04-03T08:50:40;6.60;99.90
74171;DHT22;62526;50.948;6.590;2023-04-03T08:53:06;6.60;99.90
74171;DHT22;62526;50.948;6.590;2023-04-03T08:55:34;6.70;99.90
74171;DHT22;62526;50.948;6.590;2023-04-03T08:58:02;6.80;99.90
74171;DHT22;62526;50.948;6.590;2023-04-03T09:00:28;6.90;99.90
74171;DHT22;62526;50.948;6.590;2023-04-03T09:02:54;7.00;99.90
74171;DHT22;62526;50.948;6.590;2023-04-03T09:05:32;7.10;99.90
74171;DHT22;62526;50.948;6.590;2023-04-03T09:08:04;7.20;99.90
74171;DHT22;62526;50.948;6.590;2023-04-03T09:10:28;7.20;99.90
74171;DHT22;62526;50.948;6.590;2023-04-03T09:12:58;7.20;99.90
74171;DHT22;62526;50.948;6.590;2023-04-03T09:15:22;7.30;99.90
74171;DHT22;62526;50.948;6.590;2023-04-03T09:18:04;7.40;99.90
74171;DHT22;62526;50.948;6.590;2023-04-03T09:20:46;7.40;99.90
74171;DHT22;62526;50.948;6.590;2023-04-03T09:23:18;7.30;99.90
74171;DHT22;62526;50.948;6.590;2023-04-03T09:25:43;7.40;99.90
74171;DHT22;62526;50.948;6.590;2023-04-03T09:28:09;7.50;99.90
74171;DHT22;62526;50.948;6.590;2023-04-03T09:30:36;7.50;99.90
74171;DHT22;62526;50.948;6.590;2023-04-03T09:35:44;7.50;99.90
74171;DHT22;62526;50.948;6.590;2023-04-03T09:38:20;7.70;99.90
74171;DHT22;62526;50.948;6.590;2023-04-03T09:40:49;7.90;99.90
74171;DHT22;62526;50.948;6.590;2023-04-03T09:43:20;7.90;99.90
74171;DHT22;62526;50.948;6.590;2023-04-03T09:45:46;8.10;99.90
74171;DHT22;62526;50.948;6.590;2023-04-03T09:48:18;8.20;99.90
74171;DHT22;62526;50.948;6.590;2023-04-03T09:50:54;8.10;99.90
74171;DHT22;62526;50.948;6.590;2023-04-03T09:53:27;8.30;99.90
74171;DHT22;62526;50.948;6.590;2023-04-03T09:55:51;8.40;99.90
74171;DHT22;62526;50.948;6.590;2023-04-03T09:58:26;8.50;99.90
74171;DHT22;62526;50.948;6.590;2023-04-03T10:00:55;8.50;99.90
74171;DHT22;62526;50.948;6.590;2023-04-03T10:03:27;8.50;99.90
74171;DHT22;62526;50.948;6.590;2023-04-03T10:05:51;8.50;99.90
74171;DHT22;62526;50.948;6.590;2023-04-03T10:08:22;8.70;99.90
74171;DHT22;62526;50.948;6.590;2023-04-03T10:10:48;8.90;99.90
74171;DHT22;62526;50.948;6.590;2023-04-03T10:13:17;9.00;99.90
74171;DHT22;62526;50.948;6.590;2023-04-03T10:15:43;9.00;98.90
74171;DHT22;62526;50.948;6.590;2023-04-03T10:18:27;8.90;99.90
74171;DHT22;62526;50.948;6.590;2023-04-03T10:20:48;9.00;99.90
74171;DHT22;62526;50.948;6.590;2023-04-03T10:23:21;9.20;99.90
74171;DHT22;62526;50.948;6.590;2023-04-03T10:28:36;9.50;99.80
74171;DHT22;62526;50.948;6.590;2023-04-03T10:31:22;9.50;98.40
74171;DHT22;62526;50.948;6.590;2023-04-03T10:33:55;9.50;90.60
74171;DHT22;62526;50.948;6.590;2023-04-03T10:36:40;9.50;85.70
74171;DHT22;62526;50.948;6.590;2023-04-03T10:39:12;9.60;93.80
74171;DHT22;62526;50.948;6.590;2023-04-03T10:42:15;9.70;91.40
74171;DHT22;62526;50.948;6.590;2023-04-03T10:44:44;9.60;90.20
74171;DHT22;62526;50.948;6.590;2023-04-03T10:50:15;9.80;89.00
74171;DHT22;62526;50.948;6.590;2023-04-03T10:52:42;9.80;92.10
74171;DHT22;62526;50.948;6.590;2023-04-03T10:55:48;9.90;97.20
74171;DHT22;62526;50.948;6.590;2023-04-03T10:57:55;9.90;91.10
74171;DHT22;62526;50.948;6.590;2023-04-03T11:00:34;10.00;83.30
74171;DHT22;62526;50.948;6.590;2023-04-03T11:02:51;10.10;72.20
74171;DHT22;62526;50.948;6.590;2023-04-03T11:05:37;10.00;51.60
74171;DHT22;62526;50.948;6.590;2023-04-03T11:08:05;10.10;63.80
74171;DHT22;62526;50.948;6.590;2023-04-03T11:10:37;10.10;67.40
74171;DHT22;62526;50.948;6.590;2023-04-03T11:13:37;10.30;60.00
74171;DHT22;62526;50.948;6.590;2023-04-03T11:15:44;10.40;57.10
74171;DHT22;62526;50.948;6.590;2023-04-03T11:18:12;10.60;73.80
74171;DHT22;62526;50.948;6.590;2023-04-03T11:20:37;10.70;56.30
74171;DHT22;62526;50.948;6.590;2023-04-03T11:23:08;10.70;49.30
74171;DHT22;62526;50.948;6.590;2023-04-03T11:25:33;10.80;53.00
74171;DHT22;62526;50.948;6.590;2023-04-03T11:28:00;10.90;55.30
74171;DHT22;62526;50.948;6.590;2023-04-03T11:30:33;11.10;60.70
74171;DHT22;62526;50.948;6.590;2023-04-03T11:33:17;11.20;54.20
74171;DHT22;62526;50.948;6.590;2023-04-03T11:35:43;11.30;50.10
74171;DHT22;62526;50.948;6.590;2023-04-03T11:38:10;11.50;51.20
74171;DHT22;62526;50.948;6.590;2023-04-03T11:40:35;11.50;50.50
74171;DHT22;62526;50.948;6.590;2023-04-03T11:43:04;11.60;52.10
74171;DHT22;62526;50.948;6.590;2023-04-03T11:45:35;11.70;47.60
74171;DHT22;62526;50.948;6.590;2023-04-03T11:48:03;11.80;50.50
74171;DHT22;62526;50.948;6.590;2023-04-03T11:50:41;11.70;53.30
74171;DHT22;62526;50.948;6.590;2023-04-03T11:53:29;11.80;56.80
74171;DHT22;62526;50.948;6.590;2023-04-03T11:55:58;12.10;53.30
74171;DHT22;62526;50.948;6.590;2023-04-03T11:58:25;12.40;51.90
74171;DHT22;62526;50.948;6.590;2023-04-03T12:00:52;11.40;49.00
74171;DHT22;62526;50.948;6.590;2023-04-03T12:06:47;12.80;46.40
74171;DHT22;62526;50.948;6.590;2023-04-03T12:09:24;12.80;44.20
74171;DHT22;62526;50.948;6.590;2023-04-03T12:11:49;13.00;46.60
74171;DHT22;62526;50.948;6.590;2023-04-03T12:14:16;13.20;46.00
74171;DHT22;62526;50.948;6.590;2023-04-03T12:16:44;13.20;46.50
74171;DHT22;62526;50.948;6.590;2023-04-03T12:19:32;13.40;45.30
74171;DHT22;62526;50.948;6.590;2023-04-03T12:22:13;13.70;48.80
74171;DHT22;62526;50.948;6.590;2023-04-03T12:24:40;13.80;44.20
74171;DHT22;62526;50.948;6.590;2023-04-03T12:29:50;14.50;44.50
74171;DHT22;62526;50.948;6.590;2023-04-03T12:32:34;14.70;40.80
74171;DHT22;62526;50.948;6.590;2023-04-03T12:35:08;14.90;41.60
74171;DHT22;62526;50.948;6.590;2023-04-03T12:38:17;14.50;40.80
74171;DHT22;62526;50.948;6.590;2023-04-03T12:40:58;14.70;44.80
74171;DHT22;62526;50.948;6.590;2023-04-03T12:43:31;15.30;40.40
74171;DHT22;62526;50.948;6.590;2023-04-03T12:46:19;15.80;38.50
74171;DHT22;62526;50.948;6.590;2023-04-03T12:48:57;15.80;38.10
74171;DHT22;62526;50.948;6.590;2023-04-03T12:51:22;15.90;36.90
74171;DHT22;62526;50.948;6.590;2023-04-03T12:53:48;16.40;37.70
74171;DHT22;62526;50.948;6.590;2023-04-03T12:58:51;16.60;35.30
74171;DHT22;62526;50.948;6.590;2023-04-03T13:01:25;17.10;33.50
74171;DHT22;62526;50.948;6.590;2023-04-03T13:03:54;17.30;33.00
74171;DHT22;62526;50.948;6.590;2023-04-03T13:06:27;17.90;32.00
74171;DHT22;62526;50.948;6.590;2023-04-03T13:08:54;18.20;30.60
74171;DHT22;62526;50.948;6.590;2023-04-03T13:11:20;18.30;30.30
74171;DHT22;62526;50.948;6.590;2023-04-03T13:13:54;18.00;30.00
74171;DHT22;62526;50.948;6.590;2023-04-03T13:16:19;18.40;30.20
74171;DHT22;62526;50.948;6.590;2023-04-03T13:18:50;18.40;29.30
74171;DHT22;62526;50.948;6.590;2023-04-03T13:21:15;19.20;31.10
74171;DHT22;62526;50.948;6.590;2023-04-03T13:23:41;19.70;29.00
74171;DHT22;62526;50.948;6.590;2023-04-03T13:26:07;20.10;28.80
74171;DHT22;62526;50.948;6.590;2023-04-03T13:28:34;20.00;27.20
74171;DHT22;62526;50.948;6.590;2023-04-03T13:31:27;20.00;28.10
74171;DHT22;62526;50.948;6.590;2023-04-03T13:33:56;20.00;27.50
74171;DHT22;62526;50.948;6.590;2023-04-03T13:36:23;20.00;27.70
74171;DHT22;62526;50.948;6.590;2023-04-03T13:39:01;19.60;26.00
74171;DHT22;62526;50.948;6.590;2023-04-03T13:41:32;19.80;26.60
74171;DHT22;62526;50.948;6.590;2023-04-03T13:44:14;20.00;26.40
74171;DHT22;62526;50.948;6.590;2023-04-03T13:46:26;19.80;25.90
74171;DHT22;62526;50.948;6.590;2023-04-03T13:48:53;18.90;25.40
74171;DHT22;62526;50.948;6.590;2023-04-03T13:51:21;18.90;28.10
74171;DHT22;62526;50.948;6.590;2023-04-03T13:53:51;19.60;28.70
74171;DHT22;62526;50.948;6.590;2023-04-03T13:56:21;19.60;25.40
74171;DHT22;62526;50.948;6.590;2023-04-03T13:59:05;19.30;26.90
74171;DHT22;62526;50.948;6.590;2023-04-03T14:01:34;19.40;27.10
74171;DHT22;62526;50.948;6.590;2023-04-03T14:04:00;19.20;26.70
74171;DHT22;62526;50.948;6.590;2023-04-03T14:06:26;19.80;25.80
74171;DHT22;62526;50.948;6.590;2023-04-03T14:08:52;19.80;26.40
74171;DHT22;62526;50.948;6.590;2023-04-03T14:11:22;20.50;26.00
74171;DHT22;62526;50.948;6.590;2023-04-03T14:13:48;21.00;26.10
74171;DHT22;62526;50.948;6.590;2023-04-03T14:16:15;19.90;26.00
74171;DHT22;62526;50.948;6.590;2023-04-03T14:18:42;18.90;27.60
74171;DHT22;62526;50.948;6.590;2023-04-03T14:21:10;19.30;27.30
74171;DHT22;62526;50.948;6.590;2023-04-03T14:23:35;19.20;26.10
74171;DHT22;62526;50.948;6.590;2023-04-03T14:26:01;20.10;25.70
74171;DHT22;62526;50.948;6.590;2023-04-03T14:28:28;20.60;26.10
74171;DHT22;62526;50.948;6.590;2023-04-03T14:30:55;20.30;25.30
74171;DHT22;62526;50.948;6.590;2023-04-03T14:33:23;21.10;26.50
74171;DHT22;62526;50.948;6.590;2023-04-03T14:35:49;21.10;25.40
74171;DHT22;62526;50.948;6.590;2023-04-03T14:38:24;21.40;25.20
74171;DHT22;62526;50.948;6.590;2023-04-03T14:40:50;21.20;25.20
74171;DHT22;62526;50.948;6.590;2023-04-03T14:43:16;20.30;25.30
74171;DHT22;62526;50.948;6.590;2023-04-03T14:45:43;20.20;26.90
74171;DHT22;62526;50.948;6.590;2023-04-03T14:48:12;19.40;25.60
74171;DHT22;62526;50.948;6.590;2023-04-03T14:50:36;20.30;26.60
74171;DHT22;62526;50.948;6.590;2023-04-03T14:53:03;21.30;26.00
74171;DHT22;62526;50.948;6.590;2023-04-03T14:55:29;21.10;25.00
74171;DHT22;62526;50.948;6.590;2023-04-03T14:57:56;21.00;26.00
74171;DHT22;62526;50.948;6.590;2023-04-03T15:00:23;21.50;26.40
74171;DHT22;62526;50.948;6.590;2023-04-03T15:02:49;22.30;26.10
74171;DHT22;62526;50.948;6.590;2023-04-03T15:05:16;23.10;26.00
74171;DHT22;62526;50.948;6.590;2023-04-03T15:07:49;23.60;25.90
74171;DHT22;62526;50.948;6.590;2023-04-03T15:10:17;23.80;25.50
74171;DHT22;62526;50.948;6.590;2023-04-03T15:12:42;23.60;24.70
74171;DHT22;62526;50.948;6.590;2023-04-03T15:15:09;23.70;25.00
74171;DHT22;62526;50.948;6.590;2023-04-03T15:17:36;23.50;24.70
74171;DHT22;62526;50.948;6.590;2023-04-03T15:20:03;23.20;25.10
74171;DHT22;62526;50.948;6.590;2023-04-03T15:22:29;23.10;25.50
74171;DHT22;62526;50.948;6.590;2023-04-03T15:24:56;23.30;25.20
74171;DHT22;62526;50.948;6.590;2023-04-03T15:41:28;22.30;25.10
74171;DHT22;62526;50.948;6.590;2023-04-03T15:47:04;22.60;25.20
74171;DHT22;62526;50.948;6.590;2023-04-03T16:00:50;22.40;24.60
74171;DHT22;62526;50.948;6.590;2023-04-03T16:03:27;22.00;24.80
74171;DHT22;62526;50.948;6.590;2023-04-03T16:06:00;21.60;24.90
74171;DHT22;62526;50.948;6.590;2023-04-03T16:34:18;20.90;24.00
74171;DHT22;62526;50.948;6.590;2023-04-03T16:57:11;20.90;25.40
74171;DHT22;62526;50.948;6.590;2023-04-03T16:59:38;20.50;26.30
74171;DHT22;62526;50.948;6.590;2023-04-03T17:02:04;20.30;26.60
74171;DHT22;62526;50.948;6.590;2023-04-03T17:04:31;19.80;26.80
74171;DHT22;62526;50.948;6.590;2023-04-03T17:06:57;20.00;27.40
74171;DHT22;62526;50.948;6.590;2023-04-03T17:09:25;19.70;26.90
74171;DHT22;62526;50.948;6.590;2023-04-03T17:11:51;19.40;27.10
74171;DHT22;62526;50.948;6.590;2023-04-03T17:14:18;19.50;27.80
74171;DHT22;62526;50.948;6.590;2023-04-03T17:16:45;19.30;27.50
74171;DHT22;62526;50.948;6.590;2023-04-03T17:19:12;19.00;27.30
74171;DHT22;62526;50.948;6.590;2023-04-03T17:21:39;18.80;27.50